Wetterdaten der Wetterstation 59969 Hallenberg

Letzte Wetterlage 29.08.2015 16:06
Wetterdiagramm
Tabellarische Darstellung
Datum Temperatur Windchill Feuchte Luftdruck Windrichtung Windstärke Niederschlag
29.08.2015 16:27 23,4 °C 23,4 °C 66 % 1020,4 hPa 0 l/m²
29.08.2015 16:06 23,2 °C 23,2 °C 66 % 1020,4 hPa 0 l/m²
29.08.2015 15:45 22,8 °C 22,8 °C 66 % 1020,4 hPa 0 l/m²
29.08.2015 15:24 22,9 °C 22,9 °C 65 % 1021,4 hPa 0 l/m²
29.08.2015 15:03 22,7 °C 22,7 °C 65 % 1021,4 hPa 0 l/m²
29.08.2015 14:43 21,5 °C 21,5 °C 66 % 1021,4 hPa 0 l/m²
29.08.2015 14:22 21,2 °C 21,2 °C 67 % 1021,4 hPa 0 l/m²
29.08.2015 14:01 21,0 °C 21,0 °C 65 % 1021,4 hPa 0 l/m²
29.08.2015 13:40 20,7 °C 20,7 °C 66 % 1021,4 hPa 0 l/m²
29.08.2015 13:19 19,9 °C 19,9 °C 66 % 1021,4 hPa 0 l/m²
29.08.2015 12:58 19,8 °C 19,8 °C 66 % 1021,5 hPa 0 l/m²
29.08.2015 12:38 19,2 °C 19,2 °C 65 % 1022,4 hPa 0 l/m²
29.08.2015 12:17 19,2 °C 19,2 °C 64 % 1022,4 hPa 0 l/m²
29.08.2015 11:56 18,6 °C 18,6 °C 65 % 1022,4 hPa 0 l/m²
29.08.2015 11:35 18,2 °C 18,2 °C 66 % 1022,4 hPa 0 l/m²
29.08.2015 11:14 17,4 °C 17,4 °C 71 % 1022,4 hPa 0 l/m²
29.08.2015 10:54 16,7 °C 16,7 °C 73 % 1022,4 hPa 0 l/m²
29.08.2015 10:32 16,2 °C 16,2 °C 76 % 1022,4 hPa 0 l/m²
29.08.2015 10:12 15,3 °C 15,3 °C 78 % 1022,4 hPa 0 l/m²
29.08.2015 09:51 14,8 °C 14,8 °C 80 % 1022,4 hPa 0 l/m²
29.08.2015 09:30 13,6 °C 13,6 °C 82 % 1022,4 hPa 0 l/m²
29.08.2015 09:09 13,1 °C 13,1 °C 81 % 1022,4 hPa 0 l/m²
29.08.2015 08:49 13,8 °C 13,8 °C 81 % 1022,4 hPa 0 l/m²
29.08.2015 08:28 10,0 °C 10,0 °C 91 % 1022,4 hPa 0 l/m²
29.08.2015 08:07 9,4 °C 9,4 °C 91 % 1022,4 hPa 0 l/m²
Neue Wetterwarnung

Neue Niederschlagsmeldung
Neue Meldung
Regen Liveticker
    sehr starker Regen/Gewitter
    starker Regen/Gewitter
    mäßiger bis starker Regen
    mäßiger Regen
    leichter bis mäßiger Regen
    kein Regen